createdAt,value
2019-03-24T00:03:32.317Z,11.6
2019-03-24T00:08:29.774Z,11.5
2019-03-24T00:13:27.373Z,11.5
2019-03-24T00:18:24.690Z,11.4
2019-03-24T00:23:22.165Z,11.1
2019-03-24T00:28:19.402Z,11.1
2019-03-24T00:33:16.897Z,11.2
2019-03-24T00:38:14.600Z,11.2
2019-03-24T00:43:12.170Z,11.2
2019-03-24T00:48:09.952Z,11.1
2019-03-24T00:53:07.592Z,11.1
2019-03-24T00:58:05.113Z,11.6
2019-03-24T01:03:02.562Z,11
2019-03-24T01:07:59.454Z,11
2019-03-24T01:12:56.921Z,11
2019-03-24T01:17:54.362Z,11
2019-03-24T01:22:51.834Z,10.9
2019-03-24T01:27:49.116Z,10.9
2019-03-24T01:32:47.265Z,11.4
2019-03-24T01:37:44.717Z,10.8
2019-03-24T01:42:42.313Z,10.8
2019-03-24T01:47:39.921Z,10.7
2019-03-24T01:52:37.490Z,10.6
2019-03-24T01:57:35.138Z,10.6
2019-03-24T02:02:32.545Z,10.5
2019-03-24T02:07:30.029Z,10.6
2019-03-24T02:12:27.523Z,10.6
2019-03-24T02:17:25.135Z,10.4
2019-03-24T02:22:23.069Z,10.5
2019-03-24T02:27:20.679Z,10.4
2019-03-24T02:32:18.427Z,10.4
2019-03-24T02:37:16.099Z,10.3
2019-03-24T02:42:13.807Z,10.3
2019-03-24T02:47:11.293Z,10.4
2019-03-24T02:52:08.741Z,10.2
2019-03-24T02:57:06.009Z,10.1
2019-03-24T03:02:03.436Z,10
2019-03-24T03:07:00.849Z,9.8
2019-03-24T03:11:58.378Z,9.8
2019-03-24T03:16:55.972Z,9.7
2019-03-24T03:21:53.250Z,9.4
2019-03-24T03:26:50.645Z,9.4
2019-03-24T03:31:47.938Z,9.2
2019-03-24T03:36:45.394Z,9.2
2019-03-24T03:41:43.099Z,9.2
2019-03-24T03:46:51.761Z,9.8
2019-03-24T03:51:38.269Z,9.3
2019-03-24T03:56:35.971Z,9.3
2019-03-24T04:01:33.299Z,9.1
2019-03-24T04:06:30.356Z,8.9
2019-03-24T04:11:28.147Z,9.6
2019-03-24T04:16:25.221Z,9.1
2019-03-24T04:21:22.598Z,9.1
2019-03-24T04:26:20.047Z,9.1
2019-03-24T04:31:17.670Z,8.9
2019-03-24T04:36:15.128Z,8.9
2019-03-24T04:41:13.193Z,9
2019-03-24T04:46:10.572Z,9.1
2019-03-24T04:51:08.157Z,9.6
2019-03-24T04:56:05.842Z,9
2019-03-24T05:01:03.447Z,9.1
2019-03-24T05:06:01.240Z,9
2019-03-24T05:10:58.742Z,9.1
2019-03-24T05:15:56.478Z,9
2019-03-24T05:20:53.568Z,8.8
2019-03-24T05:25:50.549Z,8.8
2019-03-24T05:30:47.920Z,9
2019-03-24T05:35:45.261Z,8.8
2019-03-24T05:40:42.710Z,8.9
2019-03-24T05:45:40.166Z,8.9
2019-03-24T05:50:37.709Z,8.8
2019-03-24T05:55:35.111Z,8.9
2019-03-24T06:00:32.574Z,9
2019-03-24T06:05:29.975Z,9
2019-03-24T06:10:27.382Z,9
2019-03-24T06:15:24.583Z,9
2019-03-24T06:20:22.204Z,9.1
2019-03-24T06:25:19.660Z,9.1
2019-03-24T06:30:16.905Z,9.2
2019-03-24T06:35:14.356Z,9.4
2019-03-24T06:40:11.855Z,9.3
2019-03-24T06:45:10.035Z,10
2019-03-24T06:50:07.389Z,9.1
2019-03-24T06:55:04.708Z,9.5
2019-03-24T07:00:02.281Z,9.6
2019-03-24T07:04:59.945Z,9.6
2019-03-24T07:09:57.388Z,9.7
2019-03-24T07:14:54.905Z,9.7
2019-03-24T07:19:52.550Z,9.8
2019-03-24T07:24:50.228Z,9.9
2019-03-24T07:29:47.813Z,9.9
2019-03-24T07:34:45.411Z,10
2019-03-24T07:39:43.502Z,10.1
2019-03-24T07:44:41.124Z,10.1
2019-03-24T07:49:38.689Z,9.7
2019-03-24T07:54:36.339Z,10.3
2019-03-24T07:59:34.591Z,10.4
2019-03-24T08:04:32.148Z,10.5
2019-03-24T08:09:29.669Z,10.6
2019-03-24T08:14:27.423Z,11.2
2019-03-24T08:19:25.544Z,10.6
2019-03-24T08:24:23.342Z,11.4
2019-03-24T08:29:21.467Z,11.6
2019-03-24T08:34:18.738Z,11.1
2019-03-24T08:39:16.323Z,11.3
2019-03-24T08:44:14.430Z,11.9
2019-03-24T08:49:11.878Z,11.5
2019-03-24T08:54:09.644Z,11.6
2019-03-24T08:59:07.397Z,11.8
2019-03-24T09:04:05.146Z,12
2019-03-24T09:09:03.409Z,12.6
2019-03-24T09:14:00.950Z,12.2
2019-03-24T09:18:58.800Z,12.2
2019-03-24T09:23:56.443Z,12.4
2019-03-24T09:28:54.051Z,12.5
2019-03-24T09:33:51.590Z,13
2019-03-24T09:38:49.269Z,13.4
2019-03-24T09:43:46.898Z,13.5
2019-03-24T09:48:44.593Z,13.6
2019-03-24T09:53:42.538Z,13.2
2019-03-24T09:58:40.396Z,13.9
2019-03-24T10:03:38.075Z,14.1
2019-03-24T10:08:35.253Z,14.4
2019-03-24T10:13:33.203Z,14.7
2019-03-24T10:18:31.154Z,15
2019-03-24T10:23:29.094Z,15.3
2019-03-24T10:28:27.363Z,15.5
2019-03-24T10:33:24.953Z,15.5
2019-03-24T10:38:22.847Z,15.7
2019-03-24T10:43:20.516Z,15.8
2019-03-24T10:48:17.979Z,16
2019-03-24T10:53:15.804Z,16.2
2019-03-24T10:58:13.612Z,16.1
2019-03-24T11:03:11.364Z,16.3
2019-03-24T11:08:09.051Z,16.4
2019-03-24T11:13:06.800Z,16.5
2019-03-24T11:18:04.446Z,16.6
2019-03-24T11:23:02.176Z,16.8
2019-03-24T11:27:59.730Z,16.9
2019-03-24T11:32:57.754Z,17.1
2019-03-24T11:37:55.380Z,17.4
2019-03-24T11:42:53.130Z,17.6
2019-03-24T11:47:50.896Z,17.7
2019-03-24T11:52:48.236Z,17.8
2019-03-24T11:57:46.187Z,18.1
2019-03-24T12:02:43.709Z,18.4
2019-03-24T12:07:41.308Z,18.5
2019-03-24T12:12:38.918Z,18.3
2019-03-24T12:17:36.679Z,19
2019-03-24T12:22:34.458Z,18.7
2019-03-24T12:27:32.385Z,18.8
2019-03-24T12:32:30.114Z,18.7
2019-03-24T12:37:27.797Z,19.1
2019-03-24T12:42:25.451Z,19
2019-03-24T12:47:23.184Z,19
2019-03-24T12:52:20.875Z,19.1
2019-03-24T12:57:18.553Z,19.2
2019-03-24T13:02:16.500Z,19.1
2019-03-24T13:07:14.284Z,19.2
2019-03-24T13:12:11.974Z,19.4
2019-03-24T13:17:09.610Z,19.4
2019-03-24T13:22:06.984Z,19.3
2019-03-24T13:27:04.842Z,19.2
2019-03-24T13:32:02.725Z,19.2
2019-03-24T13:37:00.393Z,19.2
2019-03-24T13:41:58.093Z,19.1
2019-03-24T13:46:55.827Z,19.1
2019-03-24T13:51:53.415Z,19.1
2019-03-24T13:56:51.116Z,19.1
2019-03-24T14:01:48.900Z,19
2019-03-24T14:06:46.471Z,18.9
2019-03-24T14:11:44.181Z,18.9
2019-03-24T14:16:41.914Z,18.8
2019-03-24T14:21:39.337Z,18.8
2019-03-24T14:26:36.947Z,18.7
2019-03-24T14:31:34.476Z,18.7
2019-03-24T14:36:32.262Z,19.1
2019-03-24T14:41:29.933Z,18.7
2019-03-24T14:46:27.543Z,18.6
2019-03-24T14:51:25.187Z,19
2019-03-24T14:56:22.804Z,18.9
2019-03-24T15:01:20.379Z,18.4
2019-03-24T15:06:18.243Z,18.4
2019-03-24T15:11:15.882Z,18.3
2019-03-24T15:16:13.398Z,18.3
2019-03-24T15:21:11.700Z,18.7
2019-03-24T15:26:09.536Z,18
2019-03-24T15:31:06.991Z,18.1
2019-03-24T15:36:04.594Z,18
2019-03-24T15:41:02.447Z,18.5
2019-03-24T15:46:00.068Z,18
2019-03-24T15:50:57.650Z,18.3
2019-03-24T15:55:55.289Z,17.9
2019-03-24T16:00:53.384Z,18.3
2019-03-24T16:05:50.703Z,18.2
2019-03-24T16:10:48.325Z,18.2
2019-03-24T16:15:45.897Z,18.1
2019-03-24T16:20:43.236Z,17.9
2019-03-24T16:25:41.522Z,18
2019-03-24T16:30:39.160Z,17.9
2019-03-24T16:35:36.650Z,17.9
2019-03-24T16:40:34.371Z,17.8
2019-03-24T16:45:31.756Z,17.7
2019-03-24T16:50:29.271Z,17.1
2019-03-24T16:55:27.474Z,17.4
2019-03-24T17:00:25.460Z,16.4
2019-03-24T17:05:22.678Z,17.4
2019-03-24T17:10:20.913Z,17.3
2019-03-24T17:15:18.469Z,17.2
2019-03-24T17:20:16.330Z,17.1
2019-03-24T17:25:14.089Z,17
2019-03-24T17:30:11.845Z,17
2019-03-24T17:35:09.175Z,16.9
2019-03-24T17:40:07.043Z,16.8
2019-03-24T17:45:03.978Z,16.8
2019-03-24T17:50:02.141Z,16.2
2019-03-24T17:55:00.066Z,16.7
2019-03-24T17:59:57.846Z,15.9
2019-03-24T18:04:55.509Z,16.6
2019-03-24T18:09:53.606Z,15.9
2019-03-24T18:14:51.190Z,16.4
2019-03-24T18:19:49.072Z,15.9
2019-03-24T18:24:47.174Z,15.9
2019-03-24T18:29:44.896Z,16.3
2019-03-24T18:34:42.468Z,16.3
2019-03-24T18:39:39.831Z,16.2
2019-03-24T18:44:37.533Z,16.2
2019-03-24T18:49:35.409Z,15.6
2019-03-24T18:54:32.900Z,16
2019-03-24T18:59:31.126Z,15.6
2019-03-24T19:04:28.578Z,16
2019-03-24T19:09:26.539Z,15.5
2019-03-24T19:14:23.969Z,16
2019-03-24T19:19:21.787Z,15.9
2019-03-24T19:24:19.506Z,15.3
2019-03-24T19:29:17.507Z,15.3
2019-03-24T19:34:15.149Z,15.2
2019-03-24T19:39:13.200Z,15.2
2019-03-24T19:44:10.813Z,15.6
2019-03-24T19:49:08.720Z,15.1
2019-03-24T19:54:06.784Z,15
2019-03-24T19:59:07.220Z,15.3
2019-03-24T20:04:04.006Z,15
2019-03-24T20:09:02.206Z,15.1
2019-03-24T20:14:00.763Z,14.9
2019-03-24T20:18:58.177Z,14.4
2019-03-24T20:23:55.276Z,14.7
2019-03-24T20:28:52.654Z,14.6
2019-03-24T20:33:50.771Z,14
2019-03-24T20:38:48.053Z,14.4
2019-03-24T20:48:43.596Z,13.7
2019-03-24T20:53:41.668Z,12.9
2019-03-24T20:58:39.215Z,14.1
2019-03-24T21:03:36.644Z,14.1
2019-03-24T21:08:34.194Z,13.8
2019-03-24T21:13:31.660Z,13.9
2019-03-24T21:18:29.779Z,13.3
2019-03-24T21:23:29.646Z,13.7
2019-03-24T21:28:24.797Z,13.6
2019-03-24T21:33:22.842Z,13.4
2019-03-24T21:38:20.319Z,13.4
2019-03-24T21:43:18.373Z,12.9
2019-03-24T21:48:16.059Z,13.1
2019-03-24T21:53:13.726Z,13.6
2019-03-24T21:58:11.891Z,13
2019-03-24T22:03:09.320Z,13
2019-03-24T22:08:08.219Z,12.8
2019-03-24T22:13:07.325Z,13.4
2019-03-24T22:18:06.200Z,13.3
2019-03-24T22:23:05.090Z,13.3
2019-03-24T22:28:03.238Z,12.6
2019-03-24T22:33:01.927Z,12.5
2019-03-24T22:38:01.106Z,12.3
2019-03-24T22:43:01.004Z,12.9
2019-03-24T22:48:00.583Z,12.3
2019-03-24T22:52:59.840Z,12.3
2019-03-24T22:57:58.720Z,12.2
2019-03-24T23:02:56.309Z,12.1
2019-03-24T23:07:53.372Z,12
2019-03-24T23:12:50.782Z,11.8
2019-03-24T23:17:48.205Z,11.8
2019-03-24T23:22:45.763Z,11.9
2019-03-24T23:27:43.705Z,11.9
2019-03-24T23:32:41.525Z,12.3
2019-03-24T23:37:39.173Z,11.8
2019-03-24T23:42:36.730Z,11.8
2019-03-24T23:47:34.397Z,11.8
2019-03-24T23:52:32.380Z,11.7
2019-03-24T23:57:30.028Z,11.6
